createdAt,value
2019-01-05T00:04:34.363Z,69.50
2019-01-05T00:10:08.722Z,66.53
2019-01-05T00:15:32.038Z,79.47
2019-01-05T00:20:55.830Z,65.40
2019-01-05T00:26:18.630Z,67.60
2019-01-05T00:31:41.446Z,68.00
2019-01-05T00:37:18.984Z,69.80
2019-01-05T00:42:34.447Z,64.07
2019-01-05T00:48:19.077Z,70.57
2019-01-05T00:53:43.170Z,72.57
2019-01-05T00:59:06.538Z,78.37
2019-01-05T01:04:33.491Z,64.53
2019-01-05T01:09:56.397Z,63.20
2019-01-05T01:15:19.002Z,68.63
2019-01-05T01:21:01.327Z,80.73
2019-01-05T01:26:40.567Z,110.80
2019-01-05T01:31:53.339Z,109.97
2019-01-05T01:37:10.877Z,82.97
2019-01-05T01:42:40.183Z,149.40
2019-01-05T01:48:06.132Z,111.53
2019-01-05T01:53:36.985Z,104.23
2019-01-05T01:59:03.336Z,165.80
2019-01-05T02:04:26.434Z,108.60
2019-01-05T02:09:54.736Z,93.13
2019-01-05T02:15:21.251Z,122.37
2019-01-05T02:21:04.958Z,141.13
2019-01-05T02:27:32.890Z,130.07
2019-01-05T02:33:27.591Z,160.87
2019-01-05T02:39:28.634Z,204.20
2019-01-05T02:45:23.409Z,234.97
2019-01-05T02:51:41.550Z,133.83
2019-01-05T02:57:45.595Z,171.87
2019-01-05T03:03:36.841Z,156.97
2019-01-05T03:09:39.572Z,252.00
2019-01-05T03:15:31.647Z,184.73
2019-01-05T03:21:44.161Z,148.77
2019-01-05T03:27:55.451Z,137.43
2019-01-05T03:34:17.699Z,222.50
2019-01-05T03:40:18.426Z,291.27
2019-01-05T03:46:11.000Z,216.37
2019-01-05T03:52:22.415Z,218.73
2019-01-05T03:58:27.828Z,160.83
2019-01-05T04:04:15.092Z,145.83
2019-01-05T04:10:32.751Z,148.00
2019-01-05T04:16:48.166Z,156.30
2019-01-05T04:22:28.004Z,187.53
2019-01-05T04:28:27.921Z,251.37
2019-01-05T04:34:42.753Z,184.53
2019-01-05T04:40:55.467Z,172.97
2019-01-05T04:47:15.230Z,234.53
2019-01-05T04:53:23.300Z,219.60
2019-01-05T04:59:13.066Z,203.03
2019-01-05T05:05:11.875Z,164.70
2019-01-05T05:11:09.767Z,169.47
2019-01-05T05:17:16.352Z,243.27
2019-01-05T05:23:25.695Z,106.00
2019-01-05T05:29:28.911Z,74.00
2019-01-05T05:35:19.272Z,169.97
2019-01-05T05:41:38.007Z,44.90
2019-01-05T05:47:39.505Z,89.60
2019-01-05T05:53:52.199Z,47.60
2019-01-05T05:59:57.441Z,78.00
2019-01-05T06:05:46.480Z,46.23
2019-01-05T06:11:39.676Z,107.93
2019-01-05T06:17:53.270Z,70.37
2019-01-05T06:24:08.950Z,49.00
2019-01-05T06:30:00.606Z,45.17
2019-01-05T06:36:23.215Z,40.07
2019-01-05T06:42:35.438Z,57.33
2019-01-05T06:48:54.114Z,75.87
2019-01-05T06:55:09.387Z,36.30
2019-01-05T07:01:35.503Z,64.83
2019-01-05T07:07:45.299Z,43.80
2019-01-05T07:13:42.378Z,59.83
2019-01-05T07:20:17.312Z,51.83
2019-01-05T07:26:29.102Z,87.50
2019-01-05T07:32:42.701Z,87.23
2019-01-05T07:39:06.721Z,129.33
2019-01-05T07:45:08.307Z,165.57
2019-01-05T07:51:21.538Z,115.37
2019-01-05T07:57:17.201Z,131.70
2019-01-05T08:04:04.246Z,130.57
2019-01-05T08:10:07.115Z,118.07
2019-01-05T08:16:02.030Z,140.77
2019-01-05T08:22:20.691Z,111.73
2019-01-05T08:28:24.233Z,103.60
2019-01-05T08:34:30.672Z,120.17
2019-01-05T08:40:42.332Z,148.97
2019-01-05T08:46:40.757Z,131.77
2019-01-05T08:52:28.188Z,125.40
2019-01-05T08:58:41.590Z,107.93
2019-01-05T09:05:16.582Z,116.97
2019-01-05T09:11:30.537Z,129.63
2019-01-05T09:17:24.745Z,122.83
2019-01-05T09:23:28.115Z,101.80
2019-01-05T09:29:34.602Z,108.43
2019-01-05T09:35:49.446Z,131.17
2019-01-05T09:41:55.989Z,139.93
2019-01-05T09:47:45.843Z,154.03
2019-01-05T09:53:52.949Z,134.07
2019-01-05T09:59:50.842Z,134.83
2019-01-05T10:05:39.074Z,119.03
2019-01-05T10:11:46.331Z,116.23
2019-01-05T10:17:57.737Z,125.00
2019-01-05T10:24:32.499Z,129.20
2019-01-05T10:30:33.235Z,113.97
2019-01-05T10:36:25.115Z,131.30
2019-01-05T10:42:27.366Z,148.30
2019-01-05T10:48:39.938Z,96.23
2019-01-05T10:54:40.945Z,154.73
2019-01-05T11:00:32.395Z,124.37
2019-01-05T11:06:40.904Z,171.67
2019-01-05T11:13:16.041Z,237.97
2019-01-05T11:19:31.402Z,171.13
2019-01-05T11:25:39.302Z,184.57
2019-01-05T11:31:44.318Z,156.83
2019-01-05T11:37:49.759Z,149.40
2019-01-05T11:43:49.487Z,182.40
2019-01-05T11:49:50.629Z,180.43
2019-01-05T11:55:57.006Z,182.93
2019-01-05T12:02:19.517Z,160.67
2019-01-05T12:08:24.053Z,261.83
2019-01-05T12:14:36.428Z,213.63
2019-01-05T12:20:36.023Z,162.47
2019-01-05T12:26:39.706Z,211.70
2019-01-05T12:32:59.860Z,175.30
2019-01-05T12:39:03.335Z,192.13
2019-01-05T12:45:12.255Z,176.00
2019-01-05T12:51:25.962Z,177.37
2019-01-05T12:57:27.131Z,182.50
2019-01-05T13:03:22.257Z,192.83
2019-01-05T13:09:20.756Z,187.47
2019-01-05T13:15:18.347Z,186.27
2019-01-05T13:21:09.540Z,202.00
2019-01-05T13:27:25.455Z,188.30
2019-01-05T13:33:39.583Z,201.93
2019-01-05T13:39:46.149Z,188.17
2019-01-05T13:45:59.383Z,175.30
2019-01-05T13:52:09.919Z,178.90
2019-01-05T13:57:34.827Z,183.73
2019-01-05T14:03:08.001Z,162.20
2019-01-05T14:08:29.582Z,142.43
2019-01-05T14:13:56.337Z,162.73
2019-01-05T14:19:19.109Z,130.93
2019-01-05T14:24:49.071Z,144.83
2019-01-05T14:30:11.883Z,147.20
2019-01-05T14:35:38.657Z,158.60
2019-01-05T14:41:08.530Z,150.97
2019-01-05T14:46:41.479Z,143.00
2019-01-05T14:52:11.360Z,149.23
2019-01-05T14:57:41.203Z,136.97
2019-01-05T15:03:04.400Z,148.90
2019-01-05T15:08:31.145Z,167.40
2019-01-05T15:13:58.104Z,183.60
2019-01-05T15:19:20.984Z,182.80
2019-01-05T15:24:46.339Z,157.07
2019-01-05T15:30:21.429Z,161.73
2019-01-05T15:35:45.428Z,141.90
2019-01-05T15:41:21.645Z,203.23
2019-01-05T15:46:45.604Z,169.33
2019-01-05T15:52:12.409Z,167.87
2019-01-05T15:57:39.343Z,152.83
2019-01-05T16:03:06.359Z,134.37
2019-01-05T16:08:26.667Z,119.73
2019-01-05T16:13:56.407Z,110.73
2019-01-05T16:19:20.392Z,145.87
2019-01-05T16:24:44.388Z,130.27
2019-01-05T16:30:05.630Z,150.20
2019-01-05T16:35:35.420Z,141.20
2019-01-05T16:40:58.048Z,130.50
2019-01-05T16:46:22.015Z,107.40
2019-01-05T16:51:45.418Z,115.83
2019-01-05T16:57:02.776Z,115.77
2019-01-05T17:02:35.732Z,108.37
2019-01-05T17:07:58.552Z,116.07
2019-01-05T17:13:24.896Z,104.80
2019-01-05T17:18:58.324Z,98.07
2019-01-05T17:24:21.167Z,97.63
2019-01-05T17:29:45.107Z,96.13
2019-01-05T17:35:09.601Z,107.23
2019-01-05T17:40:32.806Z,139.70
2019-01-05T17:45:59.974Z,83.63
2019-01-05T17:51:16.675Z,96.20
2019-01-05T17:56:43.605Z,94.57
2019-01-05T18:02:06.369Z,92.47
2019-01-05T18:07:29.170Z,74.33
2019-01-05T18:12:49.421Z,73.33
2019-01-05T18:18:13.257Z,71.43
2019-01-05T18:23:40.159Z,82.83
2019-01-05T18:29:02.976Z,75.00
2019-01-05T18:34:29.968Z,75.63
2019-01-05T18:40:03.012Z,66.67
2019-01-05T18:45:26.364Z,78.60
2019-01-05T18:50:59.176Z,77.17
2019-01-05T18:56:26.186Z,71.13
2019-01-05T19:01:48.974Z,77.27
2019-01-05T19:07:11.422Z,85.33
2019-01-05T19:12:50.673Z,74.07
2019-01-05T19:18:14.791Z,64.90
2019-01-05T19:23:54.002Z,72.30
2019-01-05T19:29:16.919Z,79.87
2019-01-05T19:34:39.655Z,71.37
2019-01-05T19:40:03.599Z,100.63
2019-01-05T19:45:43.213Z,71.07
2019-01-05T19:51:10.177Z,68.13
2019-01-05T19:56:40.033Z,85.53
2019-01-05T20:02:02.849Z,68.77
2019-01-05T20:07:35.844Z,58.70
2019-01-05T20:13:05.748Z,70.93
2019-01-05T20:18:33.113Z,80.57
2019-01-05T20:23:51.441Z,85.20
2019-01-05T20:29:13.988Z,77.57
2019-01-05T20:34:36.093Z,93.50
2019-01-05T20:40:00.067Z,90.73
2019-01-05T20:45:35.949Z,94.07
2019-01-05T20:51:06.017Z,90.73
2019-01-05T20:56:36.270Z,114.10
2019-01-05T21:02:18.544Z,85.90
2019-01-05T21:07:41.155Z,83.67
2019-01-05T21:13:03.695Z,93.00
2019-01-05T21:18:42.887Z,84.33
2019-01-05T21:24:05.543Z,86.00
2019-01-05T21:29:28.258Z,75.87
2019-01-05T21:34:51.019Z,74.20
2019-01-05T21:40:13.536Z,66.93
2019-01-05T21:45:43.522Z,82.47
2019-01-05T21:51:06.303Z,74.90
2019-01-05T21:56:28.938Z,68.63
2019-01-05T22:01:45.288Z,54.50
2019-01-05T22:07:18.323Z,65.70
2019-01-05T22:12:40.563Z,49.83
2019-01-05T22:18:22.723Z,58.53
2019-01-05T22:23:45.183Z,50.43
2019-01-05T22:29:08.257Z,51.07
2019-01-05T22:34:40.969Z,56.63
2019-01-05T22:39:59.781Z,51.63
2019-01-05T22:45:23.829Z,59.70
2019-01-05T22:50:42.150Z,60.90
2019-01-05T22:56:04.865Z,64.93
2019-01-05T23:01:28.420Z,56.07
2019-01-05T23:06:52.376Z,59.97
2019-01-05T23:12:14.936Z,64.23
2019-01-05T23:17:51.135Z,61.57
2019-01-05T23:23:13.591Z,56.20
2019-01-05T23:28:32.388Z,63.10
2019-01-05T23:33:54.883Z,72.20
2019-01-05T23:39:27.961Z,68.40
2019-01-05T23:44:50.853Z,61.83
2019-01-05T23:50:33.328Z,65.00
2019-01-05T23:56:03.285Z,74.03
